Time;durP1;ratioP1;P1;durP2;ratioP2;P2;SDS_P1;SDS_P2;PMS_P1;PMS_P2;Temp;Humidity;BMP_temperature;BMP_pressure;BME280_temperature;BME280_humidity;BME280_pressure;Samples;Min_cycle;Max_cycle;Signal;HPM_P1;HPM_P2
2023/01/18 00:01:07;;;;;;;4.57;0.80;;;29.10;99.90;;;;;;5065067;28;20193;-77
2023/01/18 00:03:39;;;;;;;10.35;0.95;;;29.10;99.90;;;;;;5076183;28;20270;-78
2023/01/18 00:06:10;;;;;;;5.95;0.90;;;29.10;99.90;;;;;;5068379;28;20208;-78
2023/01/18 00:08:43;;;;;;;6.35;1.17;;;29.00;99.90;;;;;;5059381;28;20222;-78
2023/01/18 00:11:17;;;;;;;2.58;0.77;;;29.10;99.90;;;;;;5076588;28;20647;-77
2023/01/18 00:13:48;;;;;;;3.10;0.60;;;29.20;99.90;;;;;;5083621;28;20288;-80
2023/01/18 00:16:21;;;;;;;6.25;1.15;;;29.30;99.90;;;;;;5071768;28;20191;-79
2023/01/18 00:18:56;;;;;;;2.00;0.80;;;29.50;99.90;;;;;;5074341;28;20279;-78
2023/01/18 00:21:28;;;;;;;2.88;0.75;;;29.60;99.90;;;;;;5060234;28;20219;-75
2023/01/18 00:24:01;;;;;;;1.83;0.70;;;29.60;99.90;;;;;;5059273;28;20272;-76
2023/01/18 00:26:32;;;;;;;3.53;0.70;;;29.60;99.90;;;;;;5058949;28;20233;-77
2023/01/18 00:29:09;;;;;;;4.90;0.82;;;29.80;99.90;;;;;;5059341;28;20225;-76
2023/01/18 00:31:40;;;;;;;3.78;0.98;;;29.80;99.90;;;;;;5059395;28;20185;-77
2023/01/18 00:34:11;;;;;;;2.50;0.70;;;29.90;99.90;;;;;;5059529;28;20198;-77
2023/01/18 00:36:41;;;;;;;4.50;0.90;;;29.90;99.90;;;;;;5059100;28;20259;-77
2023/01/18 00:39:14;;;;;;;2.45;0.80;;;30.00;99.90;;;;;;5059194;28;20555;-77
2023/01/18 00:44:31;;;;;;;3.65;0.93;;;30.30;99.90;;;;;;5055266;28;20198;-80
2023/01/18 00:47:02;;;;;;;2.42;0.70;;;30.00;99.90;;;;;;5055773;28;20224;-77
2023/01/18 00:49:33;;;;;;;3.40;0.73;;;29.60;99.90;;;;;;5055998;28;20217;-77
2023/01/18 00:52:04;;;;;;;2.63;0.70;;;29.30;99.90;;;;;;5055862;28;20194;-76
2023/01/18 00:54:37;;;;;;;1.95;0.70;;;29.10;99.90;;;;;;5055709;28;20204;-76
2023/01/18 00:57:08;;;;;;;3.13;0.90;;;29.00;99.90;;;;;;5056056;28;20209;-77
2023/01/18 00:59:45;;;;;;;3.17;1.02;;;28.90;99.90;;;;;;5055684;28;20268;-78
2023/01/18 01:02:16;;;;;;;5.28;0.80;;;28.90;99.90;;;;;;5055617;28;20240;-78
2023/01/18 01:07:36;;;;;;;3.55;0.88;;;29.10;99.90;;;;;;5055599;28;20221;-76
2023/01/18 01:10:10;;;;;;;3.00;0.90;;;29.10;99.90;;;;;;5055273;28;20192;-77
2023/01/18 01:26:40;;;;;;;5.95;1.35;;;29.50;99.90;;;;;;5055051;28;20237;-76
2023/01/18 01:29:10;;;;;;;4.32;1.25;;;29.90;99.90;;;;;;5055005;28;20233;-78
2023/01/18 01:31:43;;;;;;;5.35;1.13;;;30.00;99.90;;;;;;5055335;28;20186;-78
2023/01/18 01:34:13;;;;;;;4.22;1.10;;;30.30;99.90;;;;;;5055087;28;20634;-77
2023/01/18 01:36:44;;;;;;;4.03;1.08;;;30.30;99.90;;;;;;5055210;28;20717;-77
2023/01/18 01:39:15;;;;;;;4.07;1.20;;;30.30;99.90;;;;;;5054999;28;20201;-77
2023/01/18 01:41:48;;;;;;;6.30;1.27;;;30.30;99.90;;;;;;5054963;28;20196;-75
2023/01/18 01:44:54;;;;;;;4.40;1.10;;;30.60;99.90;;;;;;5055022;28;20196;-77
2023/01/18 01:47:36;;;;;;;4.22;0.98;;;30.70;99.90;;;;;;5054880;28;20216;-76
2023/01/18 01:50:19;;;;;;;4.00;0.90;;;30.80;99.90;;;;;;5054919;28;20247;-74
2023/01/18 01:52:50;;;;;;;3.85;0.82;;;30.90;99.90;;;;;;5054842;28;20206;-76
2023/01/18 01:55:26;;;;;;;4.22;1.05;;;31.00;99.90;;;;;;5053438;28;20208;-78
2023/01/18 01:58:02;;;;;;;8.13;1.20;;;30.80;99.90;;;;;;5054608;28;20189;-77
2023/01/18 05:32:05;;;;;;;6.30;1.40;;;27.70;99.90;;;;;;5152300;27;21004;-77
2023/01/18 05:34:35;;;;;;;10.57;1.45;;;27.50;99.90;;;;;;5131715;27;20277;-77
2023/01/18 05:37:06;;;;;;;10.20;1.55;;;27.40;99.90;;;;;;5131774;27;20183;-77
2023/01/18 05:39:46;;;;;;;4.28;1.38;;;27.40;99.90;;;;;;5131721;27;20198;-78
2023/01/18 05:42:17;;;;;;;11.27;1.30;;;27.40;99.90;;;;;;5131699;27;20755;-79
2023/01/18 05:44:48;;;;;;;9.52;1.77;;;27.40;99.90;;;;;;5131410;27;20183;-79
2023/01/18 05:47:21;;;;;;;6.90;1.45;;;27.30;99.90;;;;;;5131607;27;20187;-77
2023/01/18 05:49:52;;;;;;;11.10;1.75;;;27.20;99.90;;;;;;5131407;27;20203;-79
2023/01/18 05:52:22;;;;;;;9.00;1.60;;;27.20;99.90;;;;;;5131478;27;20187;-78
2023/01/18 05:54:53;;;;;;;6.22;1.55;;;27.00;99.90;;;;;;5131327;27;20661;-79
2023/01/18 05:57:24;;;;;;;4.70;1.30;;;27.00;99.90;;;;;;5131375;27;20198;-77
2023/01/18 05:59:58;;;;;;;10.07;1.92;;;27.10;99.90;;;;;;5131165;27;20193;-77
2023/01/18 06:02:31;;;;;;;10.13;1.90;;;26.90;99.90;;;;;;5131270;27;20194;-79
2023/01/18 06:05:02;;;;;;;8.45;1.80;;;26.90;99.90;;;;;;5131151;27;20195;-78
2023/01/18 06:07:33;;;;;;;7.05;1.73;;;26.80;99.90;;;;;;5131174;27;20187;-78
2023/01/18 06:10:04;;;;;;;12.18;2.13;;;26.80;99.90;;;;;;5131011;27;20214;-76
2023/01/18 06:12:35;;;;;;;8.77;1.60;;;26.80;99.90;;;;;;5131045;27;20187;-79
2023/01/18 06:15:06;;;;;;;12.13;1.98;;;26.80;99.90;;;;;;5130790;27;20191;-77
2023/01/18 06:17:39;;;;;;;8.13;1.63;;;26.70;99.90;;;;;;5131003;27;20187;-78
2023/01/18 06:20:29;;;;;;;10.15;2.28;;;26.60;99.90;;;;;;5130948;27;20191;-76
2023/01/18 06:23:00;;;;;;;11.63;1.90;;;26.60;99.90;;;;;;5129822;28;20236;-78
2023/01/18 06:25:31;;;;;;;14.05;2.05;;;26.50;99.90;;;;;;5130724;27;20202;-78
2023/01/18 06:28:03;;;;;;;12.30;1.80;;;26.40;99.90;;;;;;5119934;27;20274;-81
2023/01/18 06:30:35;;;;;;;10.18;1.70;;;26.40;99.90;;;;;;5109921;28;20239;-79
2023/01/18 06:33:08;;;;;;;8.15;1.80;;;26.40;99.90;;;;;;5110216;28;20192;-80
2023/01/18 06:35:40;;;;;;;13.25;2.00;;;26.40;99.90;;;;;;5110090;28;20265;-78
2023/01/18 06:38:12;;;;;;;10.20;1.90;;;26.30;99.90;;;;;;5110055;28;20647;-77
2023/01/18 06:40:46;;;;;;;12.60;1.70;;;26.20;99.90;;;;;;5110043;28;20195;-79
2023/01/18 06:43:17;;;;;;;12.80;2.30;;;26.10;99.90;;;;;;5096511;28;20632;-80
2023/01/18 06:45:55;;;;;;;8.95;1.70;;;26.20;99.90;;;;;;5096265;28;20227;-79
2023/01/18 06:48:28;;;;;;;10.95;2.13;;;26.20;99.90;;;;;;5096315;28;20184;-79
2023/01/18 06:51:00;;;;;;;10.20;1.90;;;26.10;99.90;;;;;;5096207;28;20224;-82
2023/01/18 06:53:31;;;;;;;8.98;1.83;;;26.10;99.90;;;;;;5096151;28;20198;-80
2023/01/18 06:56:09;;;;;;;11.93;2.30;;;26.10;99.90;;;;;;5096104;28;20245;-78
2023/01/18 06:58:40;;;;;;;11.98;2.00;;;26.10;99.90;;;;;;5095868;28;20192;-79
2023/01/18 07:01:14;;;;;;;10.50;1.95;;;26.10;99.90;;;;;;5096092;28;20192;-77
2023/01/18 07:03:47;;;;;;;9.00;1.70;;;26.00;99.90;;;;;;5096004;28;20196;-78
2023/01/18 07:06:18;;;;;;;11.23;2.03;;;26.10;99.90;;;;;;5095997;28;20640;-78
2023/01/18 07:08:50;;;;;;;10.98;2.20;;;26.00;99.90;;;;;;5095935;28;20192;-78
2023/01/18 07:11:21;;;;;;;11.40;1.85;;;26.00;99.90;;;;;;5095813;28;20276;-79
2023/01/18 07:13:52;;;;;;;10.27;1.90;;;25.90;99.90;;;;;;5095755;28;20563;-85
2023/01/18 07:16:27;;;;;;;11.60;2.38;;;25.90;99.90;;;;;;5095751;28;20196;-77
2023/01/18 07:19:00;;;;;;;12.05;2.10;;;25.90;99.90;;;;;;5095677;28;20241;-80
2023/01/18 07:21:40;;;;;;;7.25;1.75;;;25.80;99.90;;;;;;5095664;28;20188;-77
2023/01/18 07:24:11;;;;;;;8.32;2.03;;;25.80;99.90;;;;;;5095498;28;20198;-78
2023/01/18 07:26:42;;;;;;;13.85;1.90;;;25.80;99.90;;;;;;5095384;28;20196;-80
2023/01/18 07:29:13;;;;;;;11.45;2.00;;;25.80;99.90;;;;;;5095481;28;20234;-78
2023/01/18 07:31:44;;;;;;;10.57;2.00;;;25.80;99.90;;;;;;5095191;28;20247;-80
2023/01/18 07:34:17;;;;;;;9.43;2.10;;;25.80;99.90;;;;;;5095281;28;20192;-77
2023/01/18 07:36:48;;;;;;;10.50;1.95;;;25.70;99.90;;;;;;5095666;28;20192;-79
2023/01/18 07:39:19;;;;;;;12.60;2.40;;;25.70;99.90;;;;;;5095299;28;20191;-79
2023/01/18 07:41:56;;;;;;;12.02;2.05;;;25.70;99.90;;;;;;5095325;28;20192;-78
2023/01/18 07:44:28;;;;;;;9.48;1.92;;;25.70;99.90;;;;;;5095039;28;20184;-78
2023/01/18 07:46:59;;;;;;;12.02;1.95;;;25.70;99.90;;;;;;5095413;28;20218;-76
2023/01/18 07:49:32;;;;;;;10.43;2.47;;;25.60;99.90;;;;;;5095055;28;20551;-78
2023/01/18 07:52:03;;;;;;;9.57;1.88;;;25.60;99.90;;;;;;5095040;28;20228;-78
2023/01/18 07:54:34;;;;;;;13.32;2.65;;;25.60;99.90;;;;;;5094043;28;20283;-79
2023/01/18 07:57:05;;;;;;;9.18;1.92;;;25.60;99.90;;;;;;5094837;28;20639;-80
2023/01/18 07:59:38;;;;;;;11.10;2.10;;;25.60;99.90;;;;;;5094913;28;20539;-78
2023/01/18 08:02:12;;;;;;;9.52;1.90;;;25.60;99.90;;;;;;5094831;28;20193;-79
2023/01/18 08:04:50;;;;;;;8.80;2.10;;;25.50;99.90;;;;;;5094759;28;20196;-80
2023/01/18 08:07:21;;;;;;;12.45;2.20;;;25.50;99.90;;;;;;5094894;28;20184;-77
2023/01/18 08:09:56;;;;;;;9.20;2.05;;;25.50;99.90;;;;;;5094476;28;20192;-80
2023/01/18 08:12:27;;;;;;;16.02;2.13;;;25.50;99.90;;;;;;5094869;28;20212;-79
2023/01/18 08:14:58;;;;;;;12.95;2.30;;;25.50;99.90;;;;;;5094523;28;20658;-77
2023/01/18 08:17:29;;;;;;;6.93;1.60;;;25.50;99.90;;;;;;5094558;28;20192;-77
2023/01/18 08:20:04;;;;;;;12.00;2.47;;;25.50;99.90;;;;;;5094522;28;20195;-78
2023/01/18 08:22:35;;;;;;;12.23;2.40;;;25.50;99.90;;;;;;5094535;28;20245;-79
2023/01/18 08:25:11;;;;;;;13.55;2.47;;;25.40;99.90;;;;;;5094242;28;20200;-77
2023/01/18 08:27:42;;;;;;;12.65;2.45;;;25.40;99.90;;;;;;5094320;28;20234;-78
2023/01/18 08:30:14;;;;;;;13.25;2.28;;;25.50;99.90;;;;;;5094120;28;20246;-76
2023/01/18 08:32:45;;;;;;;11.10;2.08;;;25.50;99.90;;;;;;5094224;28;20219;-76
2023/01/18 08:35:18;;;;;;;8.05;1.75;;;25.40;99.90;;;;;;5094190;28;20184;-78
2023/01/18 08:37:49;;;;;;;15.27;2.22;;;25.40;99.90;;;;;;5094202;28;20188;-78
2023/01/18 08:40:20;;;;;;;12.05;2.20;;;25.40;99.90;;;;;;5093997;28;20188;-79
2023/01/18 08:42:51;;;;;;;13.35;2.40;;;25.40;99.90;;;;;;5094177;28;20280;-78
2023/01/18 08:45:25;;;;;;;16.05;2.60;;;25.40;99.90;;;;;;5094095;28;20727;-78
2023/01/18 08:47:59;;;;;;;13.35;2.28;;;25.40;99.90;;;;;;5094058;28;20658;-79
2023/01/18 08:50:33;;;;;;;14.68;2.35;;;25.40;99.90;;;;;;5093976;28;20195;-80
2023/01/18 08:53:05;;;;;;;9.98;2.40;;;25.40;99.90;;;;;;5093752;28;20194;-80
2023/01/18 08:55:36;;;;;;;11.52;2.60;;;25.40;99.90;;;;;;5093826;28;20192;-79
2023/01/18 08:58:07;;;;;;;11.32;2.10;;;25.30;99.90;;;;;;5093817;28;20552;-78
2023/01/18 09:00:38;;;;;;;11.07;2.10;;;25.30;99.90;;;;;;5093797;28;20187;-78
2023/01/18 09:03:09;;;;;;;8.23;1.80;;;25.30;99.90;;;;;;5093696;28;20210;-79
2023/01/18 09:05:42;;;;;;;7.32;1.85;;;25.30;99.90;;;;;;5093516;28;20229;-79
2023/01/18 09:08:13;;;;;;;8.07;2.17;;;25.30;99.90;;;;;;5093533;28;20206;-78
2023/01/18 09:10:44;;;;;;;9.00;2.08;;;25.30;99.90;;;;;;5093596;28;20188;-79
2023/01/18 09:13:15;;;;;;;11.40;2.28;;;25.30;99.90;;;;;;5093589;28;20188;-80
2023/01/18 09:15:46;;;;;;;12.60;2.05;;;25.30;99.90;;;;;;5093504;28;20195;-81
2023/01/18 09:18:17;;;;;;;14.18;2.50;;;25.30;99.90;;;;;;5093561;28;20211;-78
2023/01/18 09:20:53;;;;;;;8.43;1.80;;;25.30;99.90;;;;;;5093553;28;20197;-74
2023/01/18 09:23:24;;;;;;;9.55;2.30;;;25.40;99.90;;;;;;5093707;28;20184;-76
2023/01/18 09:26:08;;;;;;;15.82;2.40;;;25.60;99.90;;;;;;5093396;28;20195;-83
2023/01/18 09:28:39;;;;;;;8.75;2.22;;;25.60;99.90;;;;;;5093479;28;20220;-78
2023/01/18 09:31:11;;;;;;;11.02;1.95;;;25.70;99.90;;;;;;5093177;28;20330;-80
2023/01/18 09:33:42;;;;;;;12.88;2.45;;;25.70;99.90;;;;;;5093394;28;20193;-80
2023/01/18 09:36:17;;;;;;;13.00;2.13;;;25.70;99.90;;;;;;5093406;28;20609;-79
2023/01/18 09:38:48;;;;;;;11.45;2.38;;;25.70;99.90;;;;;;5093162;28;20196;-78
2023/01/18 09:41:31;;;;;;;11.98;2.33;;;25.80;99.90;;;;;;5093447;28;20192;-78
2023/01/18 09:44:07;;;;;;;13.82;2.60;;;25.60;99.90;;;;;;5093247;28;20283;-79
2023/01/18 09:46:41;;;;;;;11.90;2.50;;;25.50;99.90;;;;;;5093356;28;20281;-81
2023/01/18 09:49:20;;;;;;;13.90;2.70;;;25.40;99.90;;;;;;5093343;28;20188;-81
2023/01/18 09:52:00;;;;;;;10.35;2.42;;;25.20;99.90;;;;;;5092943;28;20570;-80
2023/01/18 09:54:41;;;;;;;11.30;2.40;;;25.10;99.90;;;;;;5093380;28;20627;-81
2023/01/18 09:57:21;;;;;;;9.40;2.60;;;25.00;99.90;;;;;;5093175;28;20191;-77
2023/01/18 09:59:58;;;;;;;13.43;2.97;;;24.80;99.90;;;;;;5093274;28;20194;-77
2023/01/18 10:02:37;;;;;;;12.75;2.88;;;24.60;99.90;;;;;;5093119;28;20196;-77
2023/01/18 10:05:13;;;;;;;11.18;3.17;;;24.40;99.90;;;;;;5093076;28;20188;-79
2023/01/18 10:08:01;;;;;;;10.25;3.08;;;24.30;99.90;;;;;;5092861;28;20274;-79
2023/01/18 10:10:38;;;;;;;7.38;3.00;;;24.10;99.90;;;;;;5092911;28;20189;-79
2023/01/18 10:13:29;;;;;;;10.48;3.00;;;24.00;99.90;;;;;;5092965;28;20216;-79
2023/01/18 10:16:01;;;;;;;8.50;3.05;;;23.90;99.90;;;;;;5092987;28;20193;-77
2023/01/18 10:18:32;;;;;;;12.32;3.20;;;23.90;99.90;;;;;;5096357;28;20199;-76
2023/01/18 10:21:06;;;;;;;8.85;3.05;;;23.80;99.90;;;;;;5096718;28;20563;-78
2023/01/18 10:23:46;;;;;;;7.80;3.00;;;23.70;99.90;;;;;;5096752;28;20191;-78
2023/01/18 10:26:24;;;;;;;9.38;2.88;;;23.60;99.90;;;;;;5096763;28;20535;-78
2023/01/18 10:29:03;;;;;;;7.97;2.88;;;23.50;99.90;;;;;;5096522;28;20226;-80
2023/01/18 10:31:45;;;;;;;6.82;2.80;;;23.40;99.90;;;;;;5096403;28;20342;-79
2023/01/18 10:34:20;;;;;;;6.47;2.50;;;23.30;99.90;;;;;;5096918;28;20188;-78
2023/01/18 10:36:54;;;;;;;6.50;2.70;;;23.30;99.90;;;;;;5096526;28;20632;-78
2023/01/18 10:39:34;;;;;;;6.38;2.90;;;23.30;99.90;;;;;;5096436;28;20192;-78
2023/01/18 10:42:12;;;;;;;8.55;2.90;;;23.20;99.90;;;;;;5095252;28;20203;-79
2023/01/18 10:44:43;;;;;;;8.75;3.10;;;23.20;99.90;;;;;;5093392;28;20192;-77
2023/01/18 10:47:20;;;;;;;6.22;2.90;;;23.10;99.90;;;;;;5090236;28;20201;-76
2023/01/18 10:49:53;;;;;;;6.38;2.80;;;23.00;99.90;;;;;;5074178;28;20199;-75
2023/01/18 10:52:29;;;;;;;6.07;2.92;;;22.90;99.90;;;;;;5074154;28;20220;-76
2023/01/18 10:55:06;;;;;;;8.05;2.95;;;22.90;99.90;;;;;;5075723;28;20207;-76
2023/01/18 10:57:44;;;;;;;4.20;2.28;;;22.90;99.90;;;;;;5075878;28;20732;-75
2023/01/18 11:00:29;;;;;;;5.70;2.80;;;22.80;99.90;;;;;;5074336;28;20220;-75
2023/01/18 11:03:02;;;;;;;8.05;2.53;;;22.80;99.90;;;;;;5072902;28;20219;-75
2023/01/18 11:05:36;;;;;;;5.15;2.78;;;22.70;99.90;;;;;;5089516;28;20200;-75
2023/01/18 11:08:26;;;;;;;5.28;2.60;;;22.60;99.90;;;;;;5095270;28;20191;-75
2023/01/18 11:11:17;;;;;;;7.43;2.45;;;22.60;99.90;;;;;;5094386;28;20222;-74
2023/01/18 11:13:52;;;;;;;5.70;2.40;;;22.60;99.90;;;;;;5081415;28;20208;-75
2023/01/18 11:16:27;;;;;;;6.22;2.67;;;22.50;99.90;;;;;;5095169;28;20198;-74
2023/01/18 11:19:04;;;;;;;6.75;2.97;;;22.50;99.90;;;;;;5084689;28;20250;-73
2023/01/18 11:21:48;;;;;;;5.68;2.67;;;22.50;99.90;;;;;;5075906;28;20205;-73
2023/01/18 11:24:21;;;;;;;5.50;2.53;;;22.50;99.90;;;;;;5079158;28;20587;-73
2023/01/18 11:27:00;;;;;;;7.32;2.90;;;22.40;99.90;;;;;;5091126;28;20782;-74
2023/01/18 11:29:33;;;;;;;6.93;2.90;;;22.30;99.90;;;;;;5075042;28;20228;-73
2023/01/18 11:32:08;;;;;;;7.93;2.78;;;22.40;99.90;;;;;;5075373;28;20219;-73
2023/01/18 11:34:42;;;;;;;7.47;2.92;;;22.30;99.90;;;;;;5078040;28;20223;-74
2023/01/18 11:37:33;;;;;;;4.78;2.70;;;22.30;99.90;;;;;;5092035;28;20537;-73
2023/01/18 11:40:29;;;;;;;7.07;2.58;;;22.30;99.90;;;;;;5075327;28;20185;-73
2023/01/18 11:43:05;;;;;;;5.82;2.63;;;22.30;99.90;;;;;;5080797;28;20200;-73
2023/01/18 11:45:40;;;;;;;5.60;2.55;;;22.20;99.90;;;;;;5089626;28;20193;-74
2023/01/18 11:48:19;;;;;;;5.13;2.63;;;22.20;99.90;;;;;;5074909;28;20184;-73
2023/01/18 11:50:54;;;;;;;6.15;2.72;;;22.10;99.90;;;;;;5090779;28;20566;-72
2023/01/18 11:53:32;;;;;;;6.82;2.78;;;22.10;99.90;;;;;;5094732;28;20219;-73
2023/01/18 11:56:07;;;;;;;6.30;3.03;;;22.10;99.90;;;;;;5095280;28;20196;-73
2023/01/18 11:58:41;;;;;;;5.28;2.60;;;22.10;99.90;;;;;;5094854;28;20195;-72
2023/01/18 12:01:47;;;;;;;6.88;2.80;;;22.10;99.90;;;;;;5094584;28;20193;-73
2023/01/18 12:04:32;;;;;;;4.68;2.53;;;22.10;99.90;;;;;;5094634;28;20193;-72
2023/01/18 12:07:16;;;;;;;5.50;2.58;;;22.10;99.90;;;;;;5094802;28;20192;-73
2023/01/18 12:09:55;;;;;;;5.70;2.55;;;22.10;99.90;;;;;;5094744;28;20529;-72
2023/01/18 12:12:56;;;;;;;5.07;2.67;;;22.10;99.90;;;;;;5094614;28;20220;-73
2023/01/18 12:15:44;;;;;;;5.07;2.90;;;22.10;99.90;;;;;;5094615;28;20636;-72
2023/01/18 12:18:32;;;;;;;5.43;2.65;;;22.10;99.90;;;;;;5094502;28;20188;-72
2023/01/18 12:21:09;;;;;;;6.20;2.90;;;22.10;99.90;;;;;;5094661;28;20647;-73
2023/01/18 12:24:01;;;;;;;6.70;2.55;;;22.10;99.90;;;;;;5094322;28;20273;-72
2023/01/18 12:26:51;;;;;;;4.70;2.80;;;22.20;99.90;;;;;;5094503;28;20191;-72
2023/01/18 12:29:58;;;;;;;4.10;2.50;;;22.20;99.90;;;;;;5094381;28;20205;-72
2023/01/18 12:33:01;;;;;;;5.82;2.70;;;22.20;99.90;;;;;;5085049;28;20604;-72
2023/01/18 12:35:57;;;;;;;5.20;2.78;;;22.20;99.90;;;;;;5094148;28;20203;-72
2023/01/18 12:38:32;;;;;;;5.28;2.90;;;22.20;99.90;;;;;;5094164;28;20223;-73
2023/01/18 12:41:31;;;;;;;5.75;3.10;;;22.20;99.90;;;;;;5093689;28;20530;-72
2023/01/18 12:44:30;;;;;;;7.68;3.22;;;22.10;99.90;;;;;;5086987;28;20257;-73
2023/01/18 12:47:11;;;;;;;4.93;2.88;;;22.10;99.90;;;;;;5093924;28;20190;-72
2023/01/18 12:49:48;;;;;;;6.53;2.90;;;22.10;99.90;;;;;;5094043;28;20188;-73
2023/01/18 12:52:25;;;;;;;3.88;2.70;;;22.10;99.90;;;;;;5093856;28;20218;-73
2023/01/18 12:54:59;;;;;;;3.85;2.60;;;22.10;99.90;;;;;;5093874;28;20192;-72
2023/01/18 12:57:31;;;;;;;5.13;2.78;;;22.20;99.90;;;;;;5093905;28;20188;-73
2023/01/18 13:00:08;;;;;;;6.85;3.10;;;22.20;99.90;;;;;;5093652;28;20189;-73
2023/01/18 13:02:43;;;;;;;5.85;2.85;;;22.30;99.90;;;;;;5093818;28;20200;-72
2023/01/18 13:05:25;;;;;;;5.13;2.78;;;22.30;99.90;;;;;;5093734;28;20211;-73
2023/01/18 13:08:05;;;;;;;4.70;2.67;;;22.30;99.90;;;;;;5093711;28;20278;-72
2023/01/18 13:10:37;;;;;;;5.70;3.10;;;22.30;99.90;;;;;;5093739;28;20632;-72
2023/01/18 13:13:18;;;;;;;5.28;2.90;;;22.30;99.90;;;;;;5093567;28;20262;-73
2023/01/18 13:15:55;;;;;;;5.75;2.80;;;22.40;99.90;;;;;;5093443;28;20565;-72
2023/01/18 13:18:32;;;;;;;6.22;2.85;;;22.40;99.90;;;;;;5093643;28;20366;-72
2023/01/18 13:21:13;;;;;;;4.90;2.92;;;22.40;99.90;;;;;;5093653;28;20184;-73
2023/01/18 13:23:53;;;;;;;3.90;3.05;;;22.40;99.90;;;;;;5093765;28;20227;-73
2023/01/18 13:26:28;;;;;;;4.75;2.78;;;22.40;99.90;;;;;;5093494;28;20195;-72
2023/01/18 13:29:18;;;;;;;3.45;2.90;;;22.40;99.90;;;;;;5093616;28;20265;-73
2023/01/18 13:31:50;;;;;;;6.28;2.63;;;22.50;99.90;;;;;;5093272;28;20284;-73
2023/01/18 13:34:33;;;;;;;5.90;2.92;;;22.40;99.90;;;;;;5093279;28;20576;-73
2023/01/18 13:37:08;;;;;;;6.07;2.70;;;22.40;99.90;;;;;;5093422;28;20184;-73
2023/01/18 13:39:50;;;;;;;5.57;2.78;;;22.40;99.90;;;;;;5093381;28;20237;-73
2023/01/18 13:42:38;;;;;;;6.38;2.88;;;22.40;99.90;;;;;;5093384;28;20286;-73
2023/01/18 13:45:23;;;;;;;5.82;2.83;;;22.40;99.90;;;;;;5093087;28;20238;-72
2023/01/18 13:47:59;;;;;;;4.40;2.42;;;22.40;99.90;;;;;;5093343;28;20196;-72
2023/01/18 13:50:51;;;;;;;3.97;2.65;;;22.40;99.90;;;;;;5093261;28;20194;-73
2023/01/18 13:53:30;;;;;;;4.95;3.13;;;22.40;99.90;;;;;;5096245;28;20702;-72
2023/01/18 13:56:27;;;;;;;5.10;2.65;;;22.40;99.90;;;;;;5033345;22;20235;-75
2023/01/18 13:59:07;;;;;;;6.90;3.72;;;22.40;99.90;;;;;;4978092;28;20554;-75
2023/01/18 14:01:41;;;;;;;4.38;2.40;;;22.30;99.90;;;;;;4978306;28;20188;-75
2023/01/18 14:04:30;;;;;;;4.95;2.72;;;22.30;99.90;;;;;;4978294;28;20200;-75
2023/01/18 14:07:03;;;;;;;5.00;2.63;;;22.30;99.90;;;;;;4978130;28;20198;-76
2023/01/18 14:09:43;;;;;;;5.68;3.25;;;22.30;99.90;;;;;;4978138;28;20196;-75
2023/01/18 14:12:14;;;;;;;3.60;2.60;;;22.30;99.90;;;;;;4977752;28;20199;-74
2023/01/18 14:14:59;;;;;;;4.20;2.80;;;22.30;99.90;;;;;;4977977;28;20198;-76
2023/01/18 14:17:34;;;;;;;3.85;2.55;;;22.40;99.90;;;;;;4978012;28;20694;-75
2023/01/18 14:20:38;;;;;;;4.32;2.67;;;22.30;99.90;;;;;;4977913;28;20227;-75
2023/01/18 14:23:22;;;;;;;3.17;2.60;;;22.30;99.90;;;;;;4977863;28;20200;-76
2023/01/18 14:26:06;;;;;;;4.80;3.10;;;22.30;99.90;;;;;;4977782;28;20196;-75
2023/01/18 14:28:41;;;;;;;2.92;2.33;;;22.30;99.90;;;;;;4977576;28;20193;-75
2023/01/18 14:31:20;;;;;;;5.30;2.88;;;22.30;99.90;;;;;;4977795;28;20196;-76
2023/01/18 14:33:51;;;;;;;3.75;2.90;;;22.30;99.90;;;;;;4977569;28;20223;-76
2023/01/18 14:36:26;;;;;;;3.47;2.70;;;22.20;99.90;;;;;;4977514;28;20196;-76
2023/01/18 14:39:16;;;;;;;4.65;2.78;;;22.30;99.90;;;;;;4977590;28;20196;-76
2023/01/18 14:41:52;;;;;;;4.15;2.85;;;22.20;99.90;;;;;;4977674;28;20280;-76
2023/01/18 14:44:25;;;;;;;6.40;2.90;;;22.20;99.90;;;;;;4977633;28;20197;-76
2023/01/18 14:46:58;;;;;;;4.13;2.95;;;22.20;99.90;;;;;;4977408;28;20200;-76
2023/01/18 14:49:33;;;;;;;4.85;2.80;;;22.20;99.90;;;;;;4977375;28;20188;-76
2023/01/18 14:52:06;;;;;;;4.65;2.70;;;22.20;99.90;;;;;;4977381;28;20707;-75
2023/01/18 14:54:38;;;;;;;6.85;2.85;;;22.20;99.90;;;;;;4977456;28;20304;-76
2023/01/18 14:57:17;;;;;;;5.20;3.13;;;22.20;99.90;;;;;;4977003;28;20198;-76
2023/01/18 14:59:54;;;;;;;5.00;2.83;;;22.20;99.90;;;;;;4977415;28;20195;-76
2023/01/18 15:02:28;;;;;;;5.97;3.05;;;22.20;99.90;;;;;;4976852;28;20196;-76
2023/01/18 15:05:13;;;;;;;4.28;2.90;;;22.10;99.90;;;;;;4977317;28;20203;-76
2023/01/18 15:07:45;;;;;;;5.03;2.70;;;22.10;99.90;;;;;;4977255;28;20553;-76
2023/01/18 15:10:19;;;;;;;2.80;2.60;;;22.10;99.90;;;;;;4977119;28;20208;-76
2023/01/18 15:12:55;;;;;;;4.75;3.17;;;22.10;99.90;;;;;;4976832;28;20226;-76
2023/01/18 15:15:28;;;;;;;3.78;2.88;;;22.10;99.90;;;;;;4976916;28;20192;-76
2023/01/18 15:18:04;;;;;;;4.43;3.33;;;22.10;99.90;;;;;;4977184;28;20192;-76
2023/01/18 15:20:35;;;;;;;3.35;2.78;;;22.10;99.90;;;;;;4976822;28;20558;-76
2023/01/18 15:23:07;;;;;;;5.63;3.20;;;22.10;99.90;;;;;;4976811;28;20652;-76
2023/01/18 15:25:38;;;;;;;4.68;2.63;;;22.10;99.90;;;;;;4976715;28;20196;-76
2023/01/18 15:28:14;;;;;;;7.30;3.10;;;22.10;99.90;;;;;;4976650;28;20251;-76
2023/01/18 15:30:51;;;;;;;6.05;3.00;;;22.00;99.90;;;;;;4976670;28;20655;-76
2023/01/18 15:33:24;;;;;;;4.25;2.85;;;22.10;99.90;;;;;;4976598;28;20239;-76
2023/01/18 15:35:59;;;;;;;4.97;2.97;;;22.10;99.90;;;;;;4976468;28;20192;-76
2023/01/18 15:38:30;;;;;;;3.42;2.92;;;22.10;99.90;;;;;;4976460;28;20196;-76
2023/01/18 15:41:05;;;;;;;4.63;3.05;;;22.10;99.90;;;;;;4976301;28;20215;-76
2023/01/18 15:43:42;;;;;;;4.20;3.00;;;22.10;99.90;;;;;;4976423;28;20557;-76
2023/01/18 15:46:15;;;;;;;4.40;3.33;;;22.10;99.90;;;;;;4976389;28;20188;-76
2023/01/18 15:48:51;;;;;;;4.25;3.55;;;22.10;99.90;;;;;;4976385;28;20200;-75
2023/01/18 15:51:51;;;;;;;4.13;2.97;;;22.20;99.90;;;;;;4976257;28;20192;-75
2023/01/18 15:54:21;;;;;;;4.30;3.00;;;22.10;99.90;;;;;;4976114;28;20290;-76
2023/01/18 15:56:52;;;;;;;4.45;3.13;;;22.20;99.90;;;;;;4975954;28;20239;-75
2023/01/18 15:59:28;;;;;;;6.47;3.75;;;22.20;99.90;;;;;;4976129;28;20199;-76
2023/01/18 16:02:18;;;;;;;5.85;3.55;;;22.20;99.90;;;;;;4976096;28;20194;-76
2023/01/18 16:04:50;;;;;;;4.35;3.17;;;22.20;99.90;;;;;;4975970;28;20196;-76
2023/01/18 16:07:47;;;;;;;4.75;3.40;;;22.20;99.90;;;;;;4975899;28;20192;-76
2023/01/18 16:10:30;;;;;;;4.72;3.65;;;22.20;99.90;;;;;;4972853;28;20560;-76
2023/01/18 16:13:24;;;;;;;4.72;3.25;;;22.20;99.90;;;;;;4975845;28;20228;-76
2023/01/18 16:16:18;;;;;;;5.30;3.20;;;22.20;99.90;;;;;;4974934;28;20204;-76
2023/01/18 16:18:52;;;;;;;4.20;3.33;;;22.20;99.90;;;;;;4975848;28;20193;-76
2023/01/18 16:21:40;;;;;;;5.80;3.65;;;22.20;99.90;;;;;;4975752;28;20196;-76
2023/01/18 16:24:20;;;;;;;5.97;3.20;;;22.20;99.90;;;;;;4975512;28;20561;-75
2023/01/18 16:26:51;;;;;;;3.83;3.25;;;22.20;99.90;;;;;;4975856;28;20196;-76
2023/01/18 16:29:22;;;;;;;3.75;3.30;;;22.30;99.90;;;;;;4975545;28;20188;-75
2023/01/18 16:32:14;;;;;;;4.35;3.38;;;22.30;99.90;;;;;;4975550;28;20199;-76
2023/01/18 16:34:45;;;;;;;3.25;2.95;;;22.30;99.90;;;;;;4975721;28;20219;-76
2023/01/18 16:37:16;;;;;;;3.53;3.13;;;22.20;99.90;;;;;;4975208;28;20193;-75
2023/01/18 16:39:48;;;;;;;5.68;3.50;;;22.20;99.90;;;;;;4975360;28;20196;-76
2023/01/18 16:42:28;;;;;;;4.05;3.10;;;22.30;99.90;;;;;;4975426;28;20662;-76
2023/01/18 16:44:59;;;;;;;4.80;3.40;;;22.20;99.90;;;;;;4975538;28;20199;-76
2023/01/18 16:47:32;;;;;;;4.57;3.72;;;22.20;99.90;;;;;;4975163;28;20200;-76
2023/01/18 16:50:03;;;;;;;6.70;4.20;;;22.20;99.90;;;;;;4975247;28;20196;-76
2023/01/18 16:52:34;;;;;;;4.93;4.22;;;22.20;99.90;;;;;;4975003;28;20279;-76
2023/01/18 16:55:05;;;;;;;4.53;3.85;;;22.20;99.90;;;;;;4974918;28;20695;-76
2023/01/18 16:57:36;;;;;;;5.45;3.83;;;22.20;99.90;;;;;;4975169;28;20655;-76
2023/01/18 17:00:16;;;;;;;4.28;3.60;;;22.20;99.90;;;;;;4975224;28;20655;-76
2023/01/18 17:02:58;;;;;;;3.88;3.30;;;22.20;99.90;;;;;;4975105;28;20663;-76
2023/01/18 17:05:30;;;;;;;4.18;3.50;;;22.20;99.90;;;;;;4975052;28;20197;-76
2023/01/18 17:09:01;;;;;;;5.32;3.58;;;22.20;99.90;;;;;;4974866;28;20243;-76
2023/01/18 17:11:32;;;;;;;5.68;3.47;;;22.20;99.90;;;;;;4974840;28;20232;-76
2023/01/18 17:14:03;;;;;;;5.40;3.88;;;22.20;99.90;;;;;;4974817;28;20250;-76
2023/01/18 17:30:25;;;;;;;4.20;3.35;;;22.20;99.90;;;;;;4801284;29;20292;-76
2023/01/18 17:32:56;;;;;;;4.43;3.28;;;22.30;99.90;;;;;;4859164;29;20204;-76
2023/01/18 17:35:28;;;;;;;3.60;3.30;;;22.30;99.90;;;;;;4955910;28;20240;-76
2023/01/18 17:37:59;;;;;;;4.40;3.17;;;22.20;99.90;;;;;;4972549;28;20209;-75